Time;durP1;ratioP1;P1;durP2;ratioP2;P2;SDS_P1;SDS_P2;PMS_P1;PMS_P2;Temp;Humidity;BMP_temperature;BMP_pressure;BME280_temperature;BME280_humidity;BME280_pressure;Samples;Min_cycle;Max_cycle;Signal;HPM_P1;HPM_P2
2024/04/08 00:01:17;0.00;0.00;0.62;0.00;0.00;0.62;3.47;1.83;;;28.10;27.70;;;;;;2236181;62;20462;-65
2024/04/08 00:04:02;0.00;0.00;0.62;0.00;0.00;0.62;2.80;1.83;;;28.00;27.60;;;;;;2236103;62;20430;-65
2024/04/08 00:06:46;0.00;0.00;0.62;0.00;0.00;0.62;2.73;2.00;;;28.00;27.70;;;;;;2311117;46;20421;-65
2024/04/08 00:09:31;0.00;0.00;0.62;0.00;0.00;0.62;2.80;1.70;;;28.00;27.70;;;;;;2236006;62;20366;-66
2024/04/08 00:12:16;0.00;0.00;0.62;0.00;0.00;0.62;3.23;1.57;;;28.00;27.70;;;;;;2624250;46;20430;-66
2024/04/08 00:15:00;0.00;0.00;0.62;0.00;0.00;0.62;3.90;1.93;;;28.00;27.80;;;;;;2236081;62;20853;-65
2024/04/08 00:17:47;0.00;0.00;0.62;0.00;0.00;0.62;4.40;1.60;;;28.00;27.80;;;;;;2235654;62;20374;-65
2024/04/08 00:20:33;0.00;0.00;0.62;0.00;0.00;0.62;3.27;2.00;;;28.00;27.80;;;;;;2235916;62;20377;-65
2024/04/08 00:23:18;0.00;0.00;0.62;0.00;0.00;0.62;4.13;2.17;;;28.00;27.80;;;;;;2236056;62;20485;-65
2024/04/08 00:26:03;0.00;0.00;0.62;0.00;0.00;0.62;2.93;1.60;;;28.00;27.90;;;;;;2235312;62;20469;-67
2024/04/08 00:28:48;0.00;0.00;0.62;0.00;0.00;0.62;2.80;1.80;;;28.00;27.90;;;;;;2235685;62;20369;-64
2024/04/08 00:31:33;0.00;0.00;0.62;0.00;0.00;0.62;4.00;2.00;;;28.00;27.90;;;;;;2235976;61;20821;-63
2024/04/08 00:34:19;0.00;0.00;0.62;0.00;0.00;0.62;3.10;2.00;;;28.00;27.90;;;;;;2236138;62;20370;-65
2024/04/08 00:37:04;0.00;0.00;0.62;0.00;0.00;0.62;3.80;1.90;;;28.00;28.00;;;;;;2236020;62;20366;-67
2024/04/08 00:39:49;0.00;0.00;0.62;0.00;0.00;0.62;2.83;1.40;;;28.00;28.00;;;;;;2235736;62;20366;-66
2024/04/08 00:42:33;0.00;0.00;0.62;0.00;0.00;0.62;2.73;1.73;;;28.00;28.50;;;;;;2235703;61;20398;-65
2024/04/08 00:45:19;0.00;0.00;0.62;0.00;0.00;0.62;2.30;1.60;;;28.00;28.00;;;;;;2235477;62;20374;-65
2024/04/08 00:48:04;0.00;0.00;0.62;0.00;0.00;0.62;3.33;1.50;;;28.00;28.10;;;;;;2235736;62;20374;-65
2024/04/08 00:50:53;0.00;0.00;0.62;0.00;0.00;0.62;2.60;1.37;;;28.00;28.00;;;;;;2235615;62;20919;-65
2024/04/08 00:53:38;0.00;0.00;0.62;0.00;0.00;0.62;2.50;1.40;;;28.00;28.10;;;;;;2236237;62;20374;-67
2024/04/08 00:56:23;0.00;0.00;0.62;0.00;0.00;0.62;2.50;1.47;;;27.90;28.00;;;;;;2579444;46;20398;-67
2024/04/08 00:59:13;0.00;0.00;0.62;0.00;0.00;0.62;3.07;1.70;;;27.90;28.00;;;;;;2235810;62;20502;-64
2024/04/08 01:01:58;0.00;0.00;0.62;0.00;0.00;0.62;2.90;1.60;;;27.90;28.10;;;;;;2235722;61;20393;-64
2024/04/08 01:04:43;0.00;0.00;0.62;0.00;0.00;0.62;4.50;1.73;;;27.90;28.10;;;;;;2236187;62;20374;-64
2024/04/08 01:07:32;0.00;0.00;0.62;0.00;0.00;0.62;2.40;1.50;;;27.90;28.10;;;;;;2235654;62;20900;-64
2024/04/08 01:10:17;0.00;0.00;0.62;0.00;0.00;0.62;3.37;2.00;;;27.90;28.10;;;;;;2235790;62;20452;-64
2024/04/08 01:13:02;0.00;0.00;0.62;0.00;0.00;0.62;4.47;1.77;;;27.90;28.10;;;;;;2236007;62;20386;-64
2024/04/08 01:15:47;0.00;0.00;0.62;0.00;0.00;0.62;3.63;1.90;;;27.90;28.10;;;;;;2235968;62;20474;-64
2024/04/08 01:18:32;0.00;0.00;0.62;0.00;0.00;0.62;4.40;1.60;;;27.90;28.10;;;;;;2660885;46;20949;-64
2024/04/08 01:21:16;0.00;0.00;0.62;0.00;0.00;0.62;2.10;1.57;;;27.90;28.10;;;;;;2235869;62;20435;-64
2024/04/08 01:24:04;0.00;0.00;0.62;0.00;0.00;0.62;2.00;1.60;;;27.90;28.20;;;;;;2235655;62;20900;-65
2024/04/08 01:26:48;0.00;0.00;0.62;0.00;0.00;0.62;4.00;1.93;;;27.90;28.20;;;;;;2236141;62;20960;-64
2024/04/08 01:29:35;0.00;0.00;0.62;0.00;0.00;0.62;3.17;1.80;;;27.90;28.20;;;;;;2235677;62;20374;-64
2024/04/08 01:32:21;0.00;0.00;0.62;0.00;0.00;0.62;2.33;1.40;;;27.90;28.20;;;;;;2235739;62;20393;-65
2024/04/08 01:35:06;0.00;0.00;0.62;0.00;0.00;0.62;2.20;1.50;;;27.90;28.20;;;;;;2235873;62;20390;-65
2024/04/08 01:37:50;0.00;0.00;0.62;0.00;0.00;0.62;4.17;1.40;;;27.90;28.20;;;;;;2235877;62;20766;-65
2024/04/08 01:40:36;0.00;0.00;0.62;0.00;0.00;0.62;2.60;1.30;;;27.90;28.20;;;;;;2509107;46;20383;-65
2024/04/08 01:43:22;0.00;0.00;0.62;0.00;0.00;0.62;4.93;1.30;;;27.90;28.20;;;;;;2231804;62;20466;-65
2024/04/08 01:46:07;0.00;0.00;0.62;0.00;0.00;0.62;2.10;1.50;;;27.80;28.20;;;;;;2232664;62;20912;-65
2024/04/08 01:48:52;0.00;0.00;0.62;0.00;0.00;0.62;3.23;1.33;;;27.90;28.20;;;;;;2235935;62;20414;-65
2024/04/08 01:51:36;0.00;0.00;0.62;0.00;0.00;0.62;2.80;1.90;;;27.80;28.20;;;;;;2235729;62;20393;-65
2024/04/08 01:54:21;0.00;0.00;0.62;0.00;0.00;0.62;2.57;1.27;;;27.80;28.20;;;;;;2235676;62;20374;-66
2024/04/08 01:57:07;0.00;0.00;0.62;0.00;0.00;0.62;3.30;1.40;;;27.90;28.30;;;;;;2262892;58;20434;-65
2024/04/08 01:59:51;0.00;0.00;0.62;0.00;0.00;0.62;2.40;1.40;;;27.80;28.30;;;;;;2235927;62;20406;-65
2024/04/08 02:02:36;0.00;0.00;0.62;0.00;0.00;0.62;4.10;1.57;;;27.80;28.30;;;;;;2235932;61;20394;-65
2024/04/08 02:05:20;0.00;0.00;0.62;0.00;0.00;0.62;3.27;1.50;;;27.80;28.30;;;;;;2484459;54;20361;-65
2024/04/08 02:08:06;0.00;0.00;0.62;0.00;0.00;0.62;1.90;1.20;;;27.80;28.30;;;;;;2236019;62;20366;-65
2024/04/08 02:10:52;0.00;0.00;0.62;0.00;0.00;0.62;2.60;1.70;;;27.80;28.30;;;;;;2232588;62;20382;-65
2024/04/08 02:13:38;0.00;0.00;0.62;0.00;0.00;0.62;2.97;1.50;;;27.80;28.30;;;;;;2235164;62;20451;-65
2024/04/08 02:16:23;0.00;0.00;0.62;0.00;0.00;0.62;2.83;1.30;;;27.80;28.30;;;;;;2236016;62;20406;-65
2024/04/08 02:19:07;0.00;0.00;0.62;0.00;0.00;0.62;2.07;1.20;;;27.80;28.30;;;;;;2235671;62;20418;-65
2024/04/08 02:21:52;0.00;0.00;0.62;0.00;0.00;0.62;1.90;1.23;;;27.80;28.40;;;;;;2235728;62;20753;-65
2024/04/08 02:24:37;0.00;0.00;0.62;0.00;0.00;0.62;2.13;1.37;;;27.80;28.40;;;;;;2235944;62;20492;-64
2024/04/08 02:27:22;0.00;0.00;0.62;0.00;0.00;0.62;3.70;1.53;;;27.80;28.40;;;;;;2235491;62;20425;-65
2024/04/08 02:30:09;0.00;0.00;0.62;0.00;0.00;0.62;2.90;1.50;;;27.80;28.40;;;;;;2236329;62;20880;-64
2024/04/08 02:32:54;0.00;0.00;0.62;0.00;0.00;0.62;2.13;1.40;;;27.80;28.40;;;;;;2235730;61;20414;-66
2024/04/08 02:35:38;0.00;0.00;0.62;0.00;0.00;0.62;2.10;1.20;;;27.80;28.40;;;;;;2235617;62;20394;-65
2024/04/08 02:38:23;0.00;0.00;0.62;0.00;0.00;0.62;2.23;1.30;;;27.80;28.40;;;;;;2235839;62;20371;-65
2024/04/08 02:41:07;0.00;0.00;0.62;0.00;0.00;0.62;2.27;1.30;;;27.80;28.40;;;;;;2235656;61;20410;-65
2024/04/08 02:43:52;0.00;0.00;0.62;0.00;0.00;0.62;2.47;1.40;;;27.80;28.50;;;;;;2235799;62;20907;-65
2024/04/08 02:46:38;0.00;0.00;0.62;0.00;0.00;0.62;3.40;1.57;;;27.80;28.50;;;;;;2235871;62;20771;-65
2024/04/08 02:49:23;0.00;0.00;0.62;0.00;0.00;0.62;3.20;1.20;;;27.80;28.50;;;;;;2235527;62;20386;-66
2024/04/08 02:52:07;0.00;0.00;0.62;0.00;0.00;0.62;1.90;1.33;;;27.70;28.40;;;;;;2236003;61;20462;-65
2024/04/08 02:54:52;0.00;0.00;0.62;0.00;0.00;0.62;5.00;1.83;;;27.70;28.40;;;;;;2235636;62;20461;-65
2024/04/08 02:57:37;0.00;0.00;0.62;0.00;0.00;0.62;2.50;1.50;;;27.70;28.50;;;;;;2235467;62;20859;-65
2024/04/08 03:00:21;0.00;0.00;0.62;0.00;0.00;0.62;3.53;1.70;;;27.70;28.50;;;;;;2236021;62;20378;-65
2024/04/08 03:03:07;0.00;0.00;0.62;0.00;0.00;0.62;4.43;1.60;;;27.70;28.50;;;;;;2235410;62;20390;-65
2024/04/08 03:05:52;0.00;0.00;0.62;0.00;0.00;0.62;2.23;1.30;;;27.70;28.50;;;;;;2235586;62;20417;-65
2024/04/08 03:08:37;0.00;0.00;0.62;0.00;0.00;0.62;2.80;1.40;;;27.70;28.50;;;;;;2235897;62;20897;-65
2024/04/08 03:11:21;0.00;0.00;0.62;0.00;0.00;0.62;2.43;1.20;;;27.70;28.50;;;;;;2235497;62;20945;-65
2024/04/08 03:14:06;0.00;0.00;0.62;0.00;0.00;0.62;3.03;1.60;;;27.70;28.50;;;;;;2235729;62;20367;-65
2024/04/08 03:16:50;0.00;0.00;0.62;0.00;0.00;0.62;3.10;1.50;;;27.70;28.50;;;;;;2235387;62;20414;-65
2024/04/08 03:19:36;0.00;0.00;0.62;0.00;0.00;0.62;3.83;1.60;;;27.70;28.50;;;;;;2235456;62;20367;-65
2024/04/08 03:22:21;0.00;0.00;0.62;0.00;0.00;0.62;2.50;1.50;;;27.70;28.50;;;;;;2235721;61;20503;-65
2024/04/08 03:25:06;0.00;0.00;0.62;0.00;0.00;0.62;3.33;1.43;;;27.70;28.50;;;;;;2235428;62;20362;-65
2024/04/08 03:27:52;0.00;0.00;0.62;0.00;0.00;0.62;3.10;1.20;;;27.70;28.50;;;;;;2235533;62;20375;-65
2024/04/08 03:30:36;0.00;0.00;0.62;0.00;0.00;0.62;2.73;1.50;;;27.70;28.50;;;;;;2235894;62;20536;-65
2024/04/08 03:33:23;0.00;0.00;0.62;0.00;0.00;0.62;2.93;1.50;;;27.60;28.50;;;;;;2235433;62;20446;-65
2024/04/08 03:36:10;0.00;0.00;0.62;0.00;0.00;0.62;4.43;1.70;;;27.60;28.50;;;;;;2235593;62;20906;-65
2024/04/08 03:38:55;0.00;0.00;0.62;0.00;0.00;0.62;4.90;1.60;;;27.70;28.60;;;;;;2235601;62;20410;-65
2024/04/08 03:41:39;0.00;0.00;0.62;0.00;0.00;0.62;2.10;1.40;;;27.60;28.50;;;;;;2664133;46;20475;-65
2024/04/08 03:44:23;0.00;0.00;0.62;0.00;0.00;0.62;3.60;1.30;;;27.60;28.50;;;;;;2231458;62;20375;-65
2024/04/08 03:47:08;0.00;0.00;0.62;0.00;0.00;0.62;2.90;1.67;;;27.60;28.50;;;;;;2232667;62;21062;-65
2024/04/08 03:49:53;0.00;0.00;0.62;0.00;0.00;0.62;2.50;1.57;;;27.60;28.50;;;;;;2235548;62;20378;-65
2024/04/08 03:52:39;0.00;0.00;0.62;0.00;0.00;0.62;3.23;1.60;;;27.60;28.60;;;;;;2235737;61;20390;-65
2024/04/08 03:55:25;0.00;0.00;0.62;0.00;0.00;0.62;2.27;1.50;;;27.60;28.60;;;;;;2235345;62;20390;-65
2024/04/08 03:58:10;0.00;0.00;0.62;0.00;0.00;0.62;2.60;1.30;;;27.60;28.60;;;;;;2235416;62;20398;-65
2024/04/08 04:00:55;0.00;0.00;0.62;0.00;0.00;0.62;2.40;1.20;;;27.60;28.60;;;;;;2235928;62;20370;-65
2024/04/08 04:03:40;0.00;0.00;0.62;0.00;0.00;0.62;2.90;1.33;;;27.60;28.60;;;;;;2512300;46;20371;-65
2024/04/08 04:06:25;0.00;0.00;0.62;0.00;0.00;0.62;2.33;1.40;;;27.60;28.60;;;;;;2231742;62;20359;-65
2024/04/08 04:09:11;0.00;0.00;0.62;0.00;0.00;0.62;2.60;1.20;;;27.60;28.60;;;;;;2232353;62;20418;-65
2024/04/08 04:11:56;0.00;0.00;0.62;0.00;0.00;0.62;2.90;1.23;;;27.60;28.60;;;;;;2235686;62;20726;-65
2024/04/08 04:14:40;0.00;0.00;0.62;0.00;0.00;0.62;2.30;1.53;;;27.60;28.60;;;;;;2235828;62;20418;-65
2024/04/08 04:17:25;0.00;0.00;0.62;0.00;0.00;0.62;1.87;1.07;;;27.50;28.50;;;;;;2235298;62;20370;-64
2024/04/08 04:20:14;0.00;0.00;0.62;0.00;0.00;0.62;2.80;1.20;;;27.50;28.60;;;;;;2237739;61;20367;-64
2024/04/08 04:22:58;0.00;0.00;0.62;0.00;0.00;0.62;2.47;1.20;;;27.50;28.50;;;;;;2236328;62;20805;-64
2024/04/08 04:25:51;0.00;0.00;0.62;0.00;0.00;0.62;2.10;1.40;;;27.50;28.50;;;;;;2235897;62;20366;-64
2024/04/08 04:28:36;0.00;0.00;0.62;0.00;0.00;0.62;2.67;1.33;;;27.50;28.50;;;;;;2235962;62;20378;-64
2024/04/08 04:31:21;0.00;0.00;0.62;0.00;0.00;0.62;2.27;1.20;;;27.50;28.50;;;;;;2236138;61;20374;-64
2024/04/08 04:34:05;0.00;0.00;0.62;0.00;0.00;0.62;2.00;1.10;;;27.50;28.50;;;;;;2236146;62;20369;-65
2024/04/08 04:36:50;0.00;0.00;0.62;0.00;0.00;0.62;2.37;1.20;;;27.50;28.50;;;;;;2236319;62;20437;-64
2024/04/08 04:39:35;0.00;0.00;0.62;0.00;0.00;0.62;3.40;1.27;;;27.50;28.50;;;;;;2235812;62;20378;-64
2024/04/08 04:42:21;0.00;0.00;0.62;0.00;0.00;0.62;2.10;1.17;;;27.50;28.50;;;;;;2236231;61;20442;-64
2024/04/08 04:45:06;0.00;0.00;0.62;0.00;0.00;0.62;2.43;1.20;;;27.50;28.50;;;;;;2236441;62;20378;-64
2024/04/08 04:47:50;0.00;0.00;0.62;0.00;0.00;0.62;2.67;1.27;;;27.50;29.10;;;;;;2235834;62;20885;-65
2024/04/08 04:50:35;0.00;0.00;0.62;0.00;0.00;0.62;2.50;1.37;;;27.50;28.50;;;;;;2236459;62;20414;-64
2024/04/08 04:53:20;0.00;0.00;0.62;0.00;0.00;0.62;2.53;1.20;;;27.50;28.60;;;;;;2236015;62;20401;-65
2024/04/08 04:56:05;0.00;0.00;0.62;0.00;0.00;0.62;2.00;1.00;;;27.50;28.60;;;;;;2235833;62;20852;-65
2024/04/08 04:58:51;0.00;0.00;0.62;0.00;0.00;0.62;3.77;1.40;;;27.50;28.50;;;;;;2236145;62;20370;-65
2024/04/08 05:01:35;0.00;0.00;0.62;0.00;0.00;0.62;3.43;1.30;;;27.50;28.60;;;;;;2235992;62;20398;-64
2024/04/08 05:04:20;0.00;0.00;0.62;0.00;0.00;0.62;2.17;1.00;;;27.50;29.10;;;;;;2236002;62;20411;-64
2024/04/08 05:07:04;0.00;0.00;0.62;0.00;0.00;0.62;3.83;1.50;;;27.50;28.80;;;;;;2236282;62;20441;-64
2024/04/08 05:09:49;0.00;0.00;0.62;0.00;0.00;0.62;2.07;1.20;;;27.50;28.60;;;;;;2235725;62;20399;-65
2024/04/08 05:12:33;0.00;0.00;0.62;0.00;0.00;0.62;2.80;1.47;;;27.50;28.60;;;;;;2236294;61;20387;-65
2024/04/08 05:15:19;0.00;0.00;0.62;0.00;0.00;0.62;2.20;1.33;;;27.50;28.60;;;;;;2235941;62;20931;-64
2024/04/08 05:18:04;0.00;0.00;0.62;0.00;0.00;0.62;4.37;1.43;;;27.50;28.60;;;;;;2235970;62;20378;-66
2024/04/08 05:20:50;0.00;0.00;0.62;0.00;0.00;0.62;1.50;0.90;;;27.50;28.60;;;;;;2236276;62;20458;-64
2024/04/08 05:23:35;0.00;0.00;0.62;0.00;0.00;0.62;3.23;1.30;;;27.50;28.60;;;;;;2235928;62;20378;-64
2024/04/08 05:26:20;0.00;0.00;0.62;0.00;0.00;0.62;5.70;1.30;;;27.50;28.60;;;;;;2235917;62;20497;-65
2024/04/08 05:29:04;0.00;0.00;0.62;0.00;0.00;0.62;2.17;1.27;;;27.40;28.50;;;;;;2236473;62;20455;-65
2024/04/08 05:31:50;0.00;0.00;0.62;0.00;0.00;0.62;2.27;1.53;;;27.40;28.60;;;;;;2235936;61;20961;-65
2024/04/08 05:34:35;0.00;0.00;0.62;0.00;0.00;0.62;3.43;1.23;;;27.40;28.60;;;;;;2236145;62;20374;-67
2024/04/08 05:37:19;0.00;0.00;0.62;0.00;0.00;0.62;2.80;1.40;;;27.40;28.60;;;;;;2236137;62;20415;-64
2024/04/08 05:40:09;0.00;0.00;0.62;0.00;0.00;0.62;2.10;1.40;;;27.40;28.60;;;;;;2700541;46;20383;-66
2024/04/08 05:42:53;0.00;0.00;0.62;0.00;0.00;0.62;3.50;1.37;;;27.40;28.60;;;;;;2232184;62;20479;-66
2024/04/08 05:45:38;0.00;0.00;0.62;0.00;0.00;0.62;2.77;1.40;;;27.40;28.60;;;;;;2233342;62;20374;-66
2024/04/08 05:48:24;0.00;0.00;0.62;0.00;0.00;0.62;2.37;1.50;;;27.40;28.60;;;;;;2235657;62;20361;-66
2024/04/08 05:51:09;0.00;0.00;0.62;0.00;0.00;0.62;1.90;1.33;;;27.40;28.60;;;;;;2236246;62;20956;-66
2024/04/08 05:53:53;0.00;0.00;0.62;0.00;0.00;0.62;3.80;1.60;;;27.40;28.60;;;;;;2235777;62;20374;-66
2024/04/08 05:56:38;0.00;0.00;0.62;0.00;0.00;0.62;1.90;1.40;;;27.40;28.60;;;;;;2235784;62;20514;-66
2024/04/08 05:59:22;0.00;0.00;0.62;0.00;0.00;0.62;2.27;1.40;;;27.40;29.20;;;;;;2235969;62;20385;-66
2024/04/08 06:02:10;0.00;0.00;0.62;0.00;0.00;0.62;3.00;1.57;;;27.40;28.60;;;;;;2546763;46;20387;-66
2024/04/08 06:04:57;0.00;0.00;0.62;0.00;0.00;0.62;3.00;1.80;;;27.40;28.70;;;;;;2236095;62;20370;-66
2024/04/08 06:07:42;0.00;0.00;0.62;0.00;0.00;0.62;4.23;1.40;;;27.40;28.70;;;;;;2235737;62;20444;-65
2024/04/08 06:10:30;0.00;0.00;0.62;0.00;0.00;0.62;3.23;1.73;;;27.40;28.70;;;;;;2235707;62;20459;-66
2024/04/08 06:13:15;0.00;0.00;0.62;0.00;0.00;0.62;3.37;1.80;;;27.40;28.70;;;;;;2236084;62;20474;-66
2024/04/08 06:16:02;0.00;0.00;0.62;0.00;0.00;0.62;3.47;1.77;;;27.40;28.70;;;;;;2235404;62;20486;-66
2024/04/08 06:18:46;0.00;0.00;0.62;0.00;0.00;0.62;1.90;1.47;;;27.30;28.70;;;;;;2235977;62;20398;-66
2024/04/08 06:21:32;0.00;0.00;0.62;0.00;0.00;0.62;2.53;1.43;;;27.40;28.70;;;;;;2235977;62;20406;-66
2024/04/08 06:24:17;0.00;0.00;0.62;0.00;0.00;0.62;2.50;1.60;;;27.40;28.70;;;;;;2462143;54;20782;-66
2024/04/08 06:27:01;0.00;0.00;0.62;0.00;0.00;0.62;3.03;1.40;;;27.30;28.70;;;;;;2232003;62;20766;-66
2024/04/08 06:29:46;0.00;0.00;0.62;0.00;0.00;0.62;3.27;1.60;;;27.30;28.70;;;;;;2232775;62;20840;-66
2024/04/08 06:32:31;0.00;0.00;0.62;0.00;0.00;0.62;3.50;1.40;;;27.30;28.70;;;;;;2235709;62;20920;-66
2024/04/08 06:35:16;0.00;0.00;0.62;0.00;0.00;0.62;2.60;1.40;;;27.30;28.70;;;;;;2236072;62;20799;-66
2024/04/08 06:38:02;0.00;0.00;0.62;0.00;0.00;0.62;2.90;1.33;;;27.30;28.70;;;;;;2235410;62;20371;-65
2024/04/08 06:40:47;0.00;0.00;0.62;0.00;0.00;0.62;2.57;1.67;;;27.30;28.70;;;;;;2239501;48;20394;-67
2024/04/08 06:43:32;0.00;0.00;0.62;0.00;0.00;0.62;3.57;1.73;;;27.30;29.20;;;;;;2236470;62;20976;-66
2024/04/08 06:46:16;0.00;0.00;0.62;0.00;0.00;0.62;2.47;1.70;;;27.40;28.70;;;;;;2235916;62;20879;-66
2024/04/08 06:49:01;0.00;0.00;0.62;0.00;0.00;0.62;2.73;2.03;;;27.30;28.70;;;;;;2235980;62;20366;-66
2024/04/08 06:51:45;0.00;0.00;0.62;0.00;0.00;0.62;2.20;1.50;;;27.30;28.70;;;;;;2236092;62;20458;-66
2024/04/08 06:54:31;0.00;0.00;0.62;0.00;0.00;0.62;3.27;2.10;;;27.30;28.70;;;;;;2236320;62;20418;-66
2024/04/08 06:57:18;0.00;0.00;0.62;0.00;0.00;0.62;2.70;1.63;;;27.30;28.70;;;;;;2236270;62;20390;-66
2024/04/08 07:00:03;0.00;0.00;0.62;0.00;0.00;0.62;3.33;1.70;;;27.40;28.80;;;;;;2235884;62;20378;-66
2024/04/08 07:02:48;0.00;0.00;0.62;0.00;0.00;0.62;2.97;1.70;;;27.30;28.70;;;;;;2236023;62;20426;-66
2024/04/08 07:05:32;0.00;0.00;0.62;0.00;0.00;0.62;2.60;1.50;;;27.30;28.70;;;;;;2236207;62;20777;-66
2024/04/08 07:08:17;0.00;0.00;0.62;0.00;0.00;0.62;2.50;1.40;;;27.30;28.80;;;;;;2235826;62;20847;-66
2024/04/08 07:11:03;0.00;0.00;0.62;0.00;0.00;0.62;2.27;1.53;;;27.30;28.80;;;;;;2236120;62;20967;-67
2024/04/08 07:13:48;0.00;0.00;0.62;0.00;0.00;0.62;3.50;1.70;;;27.30;28.80;;;;;;2235998;62;20422;-67
2024/04/08 07:16:33;0.00;0.00;0.62;0.00;0.00;0.62;2.73;1.70;;;27.30;28.80;;;;;;2235958;62;20414;-67
2024/04/08 07:19:18;0.00;0.00;0.62;0.00;0.00;0.62;2.40;1.43;;;27.40;28.80;;;;;;2235849;62;20365;-66
2024/04/08 07:22:03;0.00;0.00;0.62;0.00;0.00;0.62;2.60;1.60;;;27.30;28.80;;;;;;2235585;62;20507;-66
2024/04/08 07:24:47;0.00;0.00;0.62;0.00;0.00;0.62;3.23;1.50;;;27.30;28.80;;;;;;2236067;62;20431;-67
2024/04/08 07:27:35;0.00;0.00;0.62;0.00;0.00;0.62;3.17;1.93;;;27.30;28.80;;;;;;2236083;62;20405;-67
2024/04/08 07:30:20;0.00;0.00;0.62;0.00;0.00;0.62;2.83;1.70;;;27.30;28.80;;;;;;2235482;62;20374;-65
2024/04/08 07:33:05;0.00;0.00;0.62;0.00;0.00;0.62;3.00;1.57;;;27.30;28.80;;;;;;2235457;62;20366;-66
2024/04/08 07:35:50;0.00;0.00;0.62;0.00;0.00;0.62;2.10;1.53;;;27.30;28.80;;;;;;2235852;62;20409;-67
2024/04/08 07:38:34;0.00;0.00;0.62;0.00;0.00;0.62;5.17;1.83;;;27.30;28.80;;;;;;2236187;62;20366;-66
2024/04/08 07:41:19;0.00;0.00;0.62;0.00;0.00;0.62;2.30;1.27;;;27.30;28.80;;;;;;2235906;62;20519;-65
2024/04/08 07:44:05;0.00;0.00;0.62;0.00;0.00;0.62;2.90;1.90;;;27.30;28.80;;;;;;2235698;62;20795;-66
2024/04/08 07:46:50;0.00;0.00;0.62;0.00;0.00;0.62;2.83;1.60;;;27.30;28.80;;;;;;2235996;62;20421;-66
2024/04/08 07:49:35;0.00;0.00;0.62;0.00;0.00;0.62;2.30;1.50;;;27.30;28.80;;;;;;2236090;62;20395;-66
2024/04/08 07:52:20;0.00;0.00;0.62;0.00;0.00;0.62;3.30;2.17;;;27.30;28.80;;;;;;2235730;62;20398;-66
2024/04/08 07:55:05;0.00;0.00;0.62;0.00;0.00;0.62;3.00;2.00;;;27.30;28.80;;;;;;2235943;62;20374;-66
2024/04/08 07:57:49;0.00;0.00;0.62;0.00;0.00;0.62;3.20;1.87;;;27.30;28.80;;;;;;2236654;62;20370;-66
2024/04/08 08:00:35;0.00;0.00;0.62;0.00;0.00;0.62;2.60;2.27;;;27.30;28.80;;;;;;2600079;46;20390;-66
2024/04/08 08:03:20;0.00;0.00;0.62;0.00;0.00;0.62;3.33;1.97;;;27.30;28.80;;;;;;2236513;62;20398;-66
2024/04/08 08:06:05;0.00;0.00;0.62;0.00;0.00;0.62;2.93;2.37;;;27.30;28.90;;;;;;2236254;62;20943;-66
2024/04/08 08:08:50;0.00;0.00;0.62;0.00;0.00;0.62;4.93;2.50;;;27.30;28.80;;;;;;2236641;62;20809;-66
2024/04/08 08:11:34;0.00;0.00;0.62;0.00;0.00;0.62;6.23;3.67;;;27.30;28.90;;;;;;2236726;62;20594;-66
2024/04/08 08:14:19;0.00;0.00;0.62;0.00;0.00;0.62;4.53;3.83;;;27.30;28.90;;;;;;2236545;62;20410;-67
2024/04/08 08:17:05;0.00;0.00;0.62;0.00;0.00;0.62;3.00;2.23;;;27.30;28.90;;;;;;2236282;62;20940;-67
2024/04/08 08:19:51;0.00;0.00;0.62;0.00;0.00;0.62;5.63;3.93;;;27.30;28.90;;;;;;2236209;62;20366;-67
2024/04/08 08:22:36;0.00;0.00;0.62;0.00;0.00;0.62;4.00;3.60;;;27.30;28.90;;;;;;2236797;58;20373;-67
2024/04/08 08:25:20;0.00;0.00;0.62;0.00;0.00;0.62;5.37;4.10;;;27.30;28.90;;;;;;2235887;62;20422;-67
2024/04/08 08:28:06;0.00;0.00;0.62;0.00;0.00;0.62;3.60;3.30;;;27.30;28.90;;;;;;2236165;62;20374;-67
2024/04/08 08:30:52;0.00;0.00;0.62;0.00;0.00;0.62;5.40;3.87;;;27.30;28.90;;;;;;2236614;62;20381;-66
2024/04/08 08:33:39;0.00;0.00;0.62;0.00;0.00;0.62;6.13;3.90;;;27.30;28.90;;;;;;2236638;62;20939;-66
2024/04/08 08:36:24;0.00;0.00;0.62;0.00;0.00;0.62;4.90;4.17;;;27.30;28.90;;;;;;2236601;62;21052;-66
2024/04/08 08:39:09;0.00;0.00;0.62;0.00;0.00;0.62;4.67;4.23;;;27.30;28.90;;;;;;2236417;62;20395;-66
2024/04/08 08:41:58;0.00;0.00;0.62;0.00;0.00;0.62;6.03;4.00;;;27.30;28.90;;;;;;2236573;62;20405;-66
2024/04/08 08:44:48;0.00;0.00;0.62;0.00;0.00;0.62;4.67;3.93;;;27.30;28.90;;;;;;2236156;62;20920;-66
2024/04/08 08:47:33;0.00;0.00;0.62;0.00;0.00;0.62;6.23;5.17;;;27.30;29.00;;;;;;2235978;62;20391;-67
2024/04/08 08:50:21;0.00;0.00;0.62;0.00;0.00;0.62;5.20;4.23;;;27.30;29.00;;;;;;2236201;62;20534;-66
2024/04/08 08:53:08;0.00;0.00;0.62;0.00;0.00;0.62;5.93;5.10;;;27.20;28.90;;;;;;2236336;62;21037;-66
2024/04/08 08:55:56;0.00;0.00;0.62;0.00;0.00;0.62;4.20;3.80;;;27.20;28.90;;;;;;2236115;62;20881;-67
2024/04/08 08:58:42;0.00;0.00;0.62;0.00;0.00;0.62;6.80;4.90;;;27.30;29.00;;;;;;2235974;62;20374;-66
2024/04/08 09:01:30;0.00;0.00;0.62;0.00;0.00;0.62;4.70;3.87;;;27.30;29.00;;;;;;2236433;62;20390;-67
2024/04/08 09:04:15;0.00;0.00;0.62;0.00;0.00;0.62;5.33;4.40;;;27.30;29.00;;;;;;2236385;62;20391;-67
2024/04/08 09:07:02;0.00;0.00;0.62;0.00;0.00;0.62;8.77;4.73;;;27.30;29.00;;;;;;2237351;58;20414;-66
2024/04/08 09:09:53;0.00;0.00;0.62;0.00;0.00;0.62;4.53;4.10;;;27.30;29.00;;;;;;2236375;62;20896;-66
2024/04/08 09:12:42;0.00;0.00;0.62;0.00;0.00;0.62;5.20;4.23;;;27.20;28.90;;;;;;2236088;62;20377;-66
2024/04/08 09:15:27;0.00;0.00;0.62;0.00;0.00;0.62;4.97;4.30;;;27.30;29.00;;;;;;2236279;62;20426;-66
2024/04/08 09:18:11;0.00;0.00;0.62;0.00;0.00;0.62;5.50;4.00;;;27.30;29.00;;;;;;2236200;62;20370;-66
2024/04/08 09:20:58;0.00;0.00;0.62;0.00;0.00;0.62;5.07;4.07;;;27.30;29.00;;;;;;2235854;62;20394;-66
2024/04/08 09:23:48;0.00;0.00;0.62;0.00;0.00;0.62;5.20;4.00;;;27.30;29.00;;;;;;2236056;62;20794;-66
2024/04/08 09:26:33;0.00;0.00;0.62;0.00;0.00;0.62;5.63;4.67;;;27.30;29.00;;;;;;2236286;62;20358;-66
2024/04/08 09:29:18;0.00;0.00;0.62;0.00;0.00;0.62;7.60;5.23;;;27.30;29.00;;;;;;2696930;46;20363;-66
2024/04/08 09:32:08;0.00;0.00;0.62;0.00;0.00;0.62;4.57;3.97;;;27.30;29.00;;;;;;2232173;62;20406;-66
2024/04/08 09:34:52;0.00;0.00;0.62;0.00;0.00;0.62;5.77;4.40;;;27.30;29.00;;;;;;2233256;62;20430;-66
2024/04/08 09:37:37;0.00;0.00;0.62;0.00;0.00;0.62;4.40;3.70;;;27.30;29.00;;;;;;2235488;62;20429;-67
2024/04/08 09:40:25;0.00;0.00;0.62;0.00;0.00;0.62;5.20;4.10;;;27.30;29.00;;;;;;2236118;62;20409;-66
2024/04/08 09:43:12;0.00;0.00;0.62;0.00;0.00;0.62;4.10;3.70;;;27.30;29.00;;;;;;2235929;62;20410;-66
2024/04/08 09:45:59;0.00;0.00;0.62;0.00;0.00;0.62;4.67;3.77;;;27.30;29.00;;;;;;2235967;62;20403;-67
2024/04/08 09:48:45;0.00;0.00;0.62;0.00;0.00;0.62;4.83;4.30;;;27.30;29.00;;;;;;2236231;62;20454;-66
2024/04/08 09:51:30;0.00;0.00;0.62;0.00;0.00;0.62;5.33;4.50;;;27.40;29.10;;;;;;2531602;46;20410;-67
2024/04/08 09:54:15;0.00;0.00;0.62;0.00;0.00;0.62;5.80;4.10;;;27.40;29.10;;;;;;2236158;62;20481;-66
2024/04/08 09:57:04;0.00;0.00;0.62;0.00;0.00;0.62;5.37;3.60;;;27.40;29.10;;;;;;2235776;62;20406;-66
2024/04/08 09:59:56;0.00;0.00;0.62;0.00;0.00;0.62;3.83;3.53;;;27.40;29.10;;;;;;2236136;62;20383;-66
2024/04/08 10:02:43;0.00;0.00;0.62;0.00;0.00;0.62;5.97;4.30;;;27.40;29.10;;;;;;2235859;62;20362;-66
2024/04/08 10:05:28;0.00;0.00;0.62;0.00;0.00;0.62;4.57;4.17;;;27.40;29.20;;;;;;2235847;62;20378;-67
2024/04/08 10:08:13;0.00;0.00;0.62;0.00;0.00;0.62;4.47;4.07;;;27.40;29.10;;;;;;2235794;62;20900;-67
2024/04/08 10:10:58;0.00;0.00;0.62;0.00;0.00;0.62;7.63;4.67;;;27.50;29.20;;;;;;2236229;62;20394;-66
2024/04/08 10:13:48;0.00;0.00;0.62;0.00;0.00;0.62;4.90;4.40;;;27.40;29.10;;;;;;2617786;46;20885;-66
2024/04/08 10:16:33;0.00;0.00;0.62;0.00;0.00;0.62;6.53;4.43;;;27.40;29.10;;;;;;2235882;62;20402;-67
2024/04/08 10:19:21;0.00;0.00;0.62;0.00;0.00;0.62;5.27;4.53;;;27.40;29.10;;;;;;2235556;62;20378;-66
2024/04/08 10:22:12;0.00;0.00;0.62;0.00;0.00;0.62;7.23;4.20;;;27.50;29.20;;;;;;2235962;62;20442;-67
2024/04/08 10:24:56;0.00;0.00;0.62;0.00;0.00;0.62;5.77;4.47;;;27.50;29.20;;;;;;2236214;62;20366;-66
2024/04/08 10:27:41;0.00;0.00;0.62;0.00;0.00;0.62;4.53;4.10;;;27.50;29.20;;;;;;2235612;62;20378;-68
2024/04/08 10:30:27;0.00;0.00;0.62;0.00;0.00;0.62;5.67;4.20;;;27.50;29.20;;;;;;2235968;62;20458;-66
2024/04/08 10:33:11;0.00;0.00;0.62;0.00;0.00;0.62;4.37;3.97;;;27.50;29.20;;;;;;2236290;62;20429;-65
2024/04/08 10:35:56;0.00;0.00;0.62;0.00;0.00;0.62;5.17;4.60;;;27.50;29.70;;;;;;2702189;46;20404;-65
2024/04/08 10:38:40;0.00;0.00;0.62;0.00;0.00;0.62;9.10;4.03;;;27.50;29.20;;;;;;2231901;62;20451;-65
2024/04/08 10:41:25;0.00;0.00;0.62;0.00;0.00;0.62;4.83;4.20;;;27.50;29.20;;;;;;2232877;62;20405;-65
2024/04/08 10:44:09;0.00;0.00;0.62;0.00;0.00;0.62;7.00;4.63;;;27.50;29.20;;;;;;2236152;62;20434;-65
2024/04/08 10:46:56;0.00;0.00;0.62;0.00;0.00;0.62;5.63;4.40;;;27.60;29.20;;;;;;2235830;62;20366;-65
2024/04/08 10:49:40;0.00;0.00;0.62;0.00;0.00;0.62;4.40;3.97;;;27.60;29.30;;;;;;2235867;62;20384;-65
2024/04/08 10:52:31;0.00;0.00;0.62;0.00;0.00;0.62;5.00;4.60;;;27.60;29.30;;;;;;2235707;62;21019;-65